Terminal Aerodrome Forecast
Issued by NWS

Home | Current Version | Previous Version | Text Only | Print | Product List | Glossary On
Versions: 1 2 3 4 5 6 7 8 9 10 11 12
000
FTUS46 KSTO 200500
TAFMHR
TAF
KMHR 200528Z 2006/2106 15007KT P6SM FEW250
      TEMPO 2012/2016 SCT010
     FM202000 22007KT P6SM FEW250=

USA.gov is the U.S. government's official web portal to all federal, state and local government web resources and services.